Date,TemperatureHighF,TemperatureAvgF,TemperatureLowF,DewpointHighF,DewpointAvgF,DewpointLowF,HumidityHigh,HumidityAvg,HumidityLow,PressureMaxIn,PressureMinIn,WindSpeedMaxMPH,WindSpeedAvgMPH,GustSpeedMaxMPH,PrecipitationSumIn
2013-2-1,27.0,20.8,14.0,17.5,9.6,3.0,76,62,48,30.04,29.51,13,4,21,0.00
2013-2-2,22.0,16.8,10.0,14.8,7.5,1.6,83,67,51,30.18,30.02,10,2,16,0.00
2013-2-3,26.0,20.9,15.0,16.5,15.0,13.3,96,78,63,30.03,29.70,5,1,8,0.00
2013-2-4,26.0,20.3,14.0,17.2,7.1,-0.7,85,58,37,29.87,29.67,14,3,32,0.00
2013-2-5,23.0,15.0,6.0,13.2,4.8,-1.7,81,64,49,30.01,29.87,8,1,9,0.00
2013-2-6,34.0,21.8,15.0,24.2,13.6,-6.8,99,73,35,30.28,29.92,12,2,19,0.00
2013-2-7,20.0,14.6,9.0,5.1,-1.8,-5.9,59,48,34,30.50,30.27,10,2,16,0.00
2013-2-8,16.0,12.4,9.0,13.0,9.0,0.1,100,87,51,30.49,29.86,8,1,11,0.00
2013-2-9,11.0,11.0,11.0,11.0,10.9,10.8,100,100,99,30.16,30.15,8,6,16,0.00
2013-2-10,32.0,17.8,5.0,16.9,6.8,-2.1,100,66,33,30.36,30.16,10,2,19,0.00
2013-2-11,29.0,18.3,4.0,29.0,17.8,2.9,100,98,89,30.33,29.62,2,0,4,0.00
2013-2-12,37.0,32.0,26.0,33.0,29.2,25.9,100,90,70,29.80,29.58,10,2,17,0.22
2013-2-13,39.0,30.8,23.0,26.6,22.9,20.9,96,73,53,29.84,29.75,9,2,17,0.07
2013-2-14,37.0,25.6,19.0,24.9,21.4,18.8,100,86,55,29.99,29.73,6,1,12,0.04
2013-2-15,47.0,30.9,17.0,31.6,24.5,17.0,100,79,51,29.99,29.89,8,2,16,0.09
2013-2-16,37.0,30.8,25.0,29.8,22.2,11.1,100,72,55,29.96,29.76,10,2,12,0.00
2013-2-17,25.0,16.2,11.0,15.8,8.5,1.2,100,73,52,29.76,29.34,25,7,36,0.01
2013-2-18,24.0,16.2,7.0,3.6,-0.6,-4.2,71,50,30,30.07,29.59,18,7,42,0.00
2013-2-19,39.0,25.8,13.0,33.0,15.9,-1.2,100,68,37,30.12,29.56,6,1,11,0.14
2013-2-20,34.0,28.4,22.0,34.0,22.2,13.6,100,78,60,29.73,29.50,11,3,19,0.04
2013-2-21,25.0,23.1,21.0,17.5,14.2,11.1,78,68,60,30.18,29.85,13,4,21,0.00
2013-2-22,29.0,29.0,29.0,24.2,24.2,24.2,82,82,82,30.33,30.32,6,4,9,0.00
2013-2-23,35.0,30.1,25.0,32.2,28.6,22.7,100,94,82,30.33,29.98,8,1,9,0.00
2013-2-24,31.0,29.8,27.0,31.0,29.8,27.0,100,100,100,29.98,29.77,1,0,4,0.00
2013-2-25,37.0,28.3,18.0,35.5,28.2,18.0,100,99,92,30.22,29.91,5,0,6,0.05
2013-2-26,37.0,31.7,28.0,36.7,31.1,28.0,100,98,87,30.35,30.20,5,1,5,0.35
2013-2-27,34.0,30.8,29.0,34.0,30.8,29.0,100,100,100,30.20,29.69,5,1,10,0.31
2013-2-28,39.0,32.6,28.0,37.0,32.2,28.0,100,99,86,29.69,29.56,5,1,6,0.64